createdAt,value
2017-01-05T14:17:06.778Z,929.81
2017-01-05T14:17:36.808Z,930.46
2017-01-05T14:18:06.841Z,931.05
2017-01-05T14:18:36.868Z,931.56
2017-01-05T14:19:06.902Z,932.13
2017-01-05T14:19:36.937Z,932.61
2017-01-05T14:20:06.968Z,933.04
2017-01-05T14:20:37.002Z,933.5
2017-01-05T14:21:07.046Z,933.83
2017-01-05T14:21:37.068Z,934.27
2017-01-05T14:22:07.099Z,934.59
2017-01-05T14:22:37.137Z,934.95
2017-01-05T14:23:07.170Z,935.26
2017-01-05T14:23:37.205Z,935.57
2017-01-05T14:24:07.243Z,935.85
2017-01-05T14:24:37.274Z,936.11
2017-01-05T14:25:07.312Z,936.4
2017-01-05T14:25:37.347Z,936.64
2017-01-05T14:26:07.384Z,936.93
2017-01-05T14:29:06.110Z,938.72
2017-01-05T14:29:36.140Z,938.99
2017-01-05T14:30:06.178Z,939.2
2017-01-05T14:30:36.211Z,939.44
2017-01-05T14:31:06.244Z,939.64
2017-01-05T14:31:36.282Z,939.87
2017-01-05T15:45:02.912Z,948.79
2017-01-05T15:45:32.943Z,948.92
2017-01-05T15:46:02.976Z,949.03
2017-01-05T15:46:33.011Z,949.12
2017-01-05T17:05:50.029Z,947.23
2017-01-05T17:06:20.059Z,947.33
2017-01-05T17:06:50.090Z,947.32
2017-01-05T17:07:20.122Z,947.31
2017-01-05T17:07:50.158Z,947.23
2017-01-05T17:08:20.191Z,947.14
2017-01-05T17:08:50.222Z,947.09
2017-01-05T17:09:20.257Z,947
2017-01-05T17:09:50.291Z,946.95
2017-01-05T17:10:20.324Z,946.89
2017-01-05T17:10:50.361Z,946.95
